AIC2216 VECC-VGHS
Flight info
| Callsign | AIC2216 |
|---|---|
| Flight time | 0h 26m |
| Altitude | 21000 |
| Route | BEMAK2E BEMAK A462 IKOGU |
| Aircraft | A320/M-SDE3FGHIRWY/LB1 |
Departure
| Time | 2026-05-08 01:54 |
|---|---|
| Airport | Netaji Subhash Chandra Bose International Airport (VECC) |
Arrival
| Time | 2026-05-08 02:20 |
|---|---|
| Airport | Hazrat Shahjalal International Airport (VGHS) |
| Time | Latitude | Longitude | Altitude | Speed | Heading |
|---|---|---|---|---|---|
| 2026-05-08 01:41 | 22.63956 | 88.43745 | 23 ft | 0 kts | 336° |
| 2026-05-08 01:46 | 22.63953 | 88.43746 | 23 ft | 3 kts | 337° |
| 2026-05-08 01:46 | 22.63928 | 88.43756 | 23 ft | 4 kts | 341° |
| 2026-05-08 01:46 | 22.63906 | 88.43765 | 25 ft | 4 kts | 354° |
| 2026-05-08 01:47 | 22.63884 | 88.43759 | 26 ft | 4 kts | 51° |
| 2026-05-08 01:47 | 22.63874 | 88.43743 | 25 ft | 1 kts | 66° |
| 2026-05-08 01:47 | 22.63873 | 88.43740 | 26 ft | 0 kts | 66° |
| 2026-05-08 01:49 | 22.63874 | 88.43741 | 26 ft | 1 kts | 66° |
| 2026-05-08 01:49 | 22.63887 | 88.43774 | 25 ft | 8 kts | 67° |
| 2026-05-08 01:50 | 22.63917 | 88.43852 | 23 ft | 14 kts | 68° |
| 2026-05-08 01:50 | 22.63963 | 88.43966 | 23 ft | 18 kts | 65° |
| 2026-05-08 01:50 | 22.64011 | 88.44095 | 23 ft | 19 kts | 68° |
| 2026-05-08 01:50 | 22.64014 | 88.44178 | 23 ft | 9 kts | 96° |
| 2026-05-08 01:51 | 22.64007 | 88.44245 | 23 ft | 10 kts | 96° |
| 2026-05-08 01:51 | 22.64047 | 88.44291 | 23 ft | 9 kts | 6° |
| 2026-05-08 01:51 | 22.64111 | 88.44298 | 23 ft | 9 kts | 6° |
| 2026-05-08 01:51 | 22.64161 | 88.44318 | 24 ft | 7 kts | 48° |
| 2026-05-08 01:52 | 22.64194 | 88.44394 | 26 ft | 15 kts | 66° |
| 2026-05-08 01:52 | 22.64240 | 88.44517 | 26 ft | 17 kts | 70° |
| 2026-05-08 01:52 | 22.64273 | 88.44602 | 26 ft | 12 kts | 66° |
| 2026-05-08 01:52 | 22.64332 | 88.44650 | 29 ft | 12 kts | 9° |
| 2026-05-08 01:53 | 22.64462 | 88.44665 | 24 ft | 42 kts | 6° |
| 2026-05-08 01:53 | 22.65000 | 88.44727 | 23 ft | 109 kts | 6° |
| 2026-05-08 01:53 | 22.65930 | 88.44836 | 30 ft | 158 kts | 6° |
| 2026-05-08 01:53 | 22.67158 | 88.44972 | 136 ft | 191 kts | 6° |
| 2026-05-08 01:54 | 22.68517 | 88.45139 | 428 ft | 212 kts | 6° |
| 2026-05-08 01:54 | 22.70095 | 88.45337 | 754 ft | 244 kts | 6° |
| 2026-05-08 01:54 | 22.71879 | 88.45540 | 1167 ft | 271 kts | 6° |
| 2026-05-08 01:54 | 22.73711 | 88.46087 | 1955 ft | 277 kts | 30° |
| 2026-05-08 01:55 | 22.75048 | 88.47543 | 2914 ft | 276 kts | 63° |
| 2026-05-08 01:55 | 22.75434 | 88.49545 | 3842 ft | 274 kts | 93° |
| 2026-05-08 01:55 | 22.75193 | 88.51585 | 4810 ft | 273 kts | 98° |
| 2026-05-08 01:55 | 22.74911 | 88.53645 | 5583 ft | 280 kts | 98° |
| 2026-05-08 01:56 | 22.74623 | 88.55754 | 6371 ft | 285 kts | 97° |
| 2026-05-08 01:56 | 22.74331 | 88.57902 | 7102 ft | 291 kts | 96° |
| 2026-05-08 01:56 | 22.74249 | 88.60100 | 7819 ft | 294 kts | 84° |
| 2026-05-08 01:56 | 22.74450 | 88.62313 | 8581 ft | 297 kts | 78° |
| 2026-05-08 01:57 | 22.74782 | 88.64539 | 9352 ft | 301 kts | 76° |
| 2026-05-08 01:57 | 22.75154 | 88.66781 | 10090 ft | 305 kts | 76° |
| 2026-05-08 01:57 | 22.75741 | 88.69059 | 10365 ft | 324 kts | 65° |
| 2026-05-08 01:57 | 22.76769 | 88.71310 | 10567 ft | 343 kts | 54° |
| 2026-05-08 01:58 | 22.78212 | 88.73389 | 11035 ft | 350 kts | 44° |
| 2026-05-08 01:58 | 22.79908 | 88.75310 | 11645 ft | 356 kts | 43° |
| 2026-05-08 01:58 | 22.81633 | 88.77267 | 12272 ft | 362 kts | 43° |
| 2026-05-08 01:58 | 22.83382 | 88.79256 | 12890 ft | 367 kts | 44° |
| 2026-05-08 01:59 | 22.85157 | 88.81272 | 13513 ft | 372 kts | 44° |
| 2026-05-08 01:59 | 22.86958 | 88.83313 | 14059 ft | 377 kts | 44° |
| 2026-05-08 01:59 | 22.88783 | 88.85379 | 14585 ft | 382 kts | 44° |
| 2026-05-08 01:59 | 22.90635 | 88.87478 | 15069 ft | 389 kts | 44° |
| 2026-05-08 02:00 | 22.92494 | 88.89641 | 15579 ft | 395 kts | 49° |
| 2026-05-08 02:00 | 22.94096 | 88.92089 | 16094 ft | 401 kts | 55° |
| 2026-05-08 02:00 | 22.95630 | 88.94635 | 16611 ft | 405 kts | 55° |
| 2026-05-08 02:00 | 22.97184 | 88.97209 | 17137 ft | 410 kts | 55° |
| 2026-05-08 02:01 | 22.98760 | 88.99814 | 17648 ft | 415 kts | 55° |
| 2026-05-08 02:01 | 23.00351 | 89.02441 | 18160 ft | 419 kts | 55° |
| 2026-05-08 02:01 | 23.01956 | 89.05097 | 18599 ft | 423 kts | 55° |
| 2026-05-08 02:01 | 23.03576 | 89.07781 | 19035 ft | 427 kts | 55° |
| 2026-05-08 02:02 | 23.05209 | 89.10486 | 19474 ft | 431 kts | 55° |
| 2026-05-08 02:02 | 23.06859 | 89.13220 | 19901 ft | 434 kts | 55° |
| 2026-05-08 02:02 | 23.08517 | 89.15969 | 20329 ft | 438 kts | 55° |
| 2026-05-08 02:02 | 23.10182 | 89.18732 | 20737 ft | 441 kts | 55° |
| 2026-05-08 02:03 | 23.11869 | 89.21536 | 20909 ft | 446 kts | 55° |
| 2026-05-08 02:03 | 23.13576 | 89.24369 | 20945 ft | 450 kts | 55° |
| 2026-05-08 02:03 | 23.15269 | 89.27178 | 20952 ft | 450 kts | 55° |
| 2026-05-08 02:03 | 23.16984 | 89.30026 | 20950 ft | 450 kts | 55° |
| 2026-05-08 02:04 | 23.18696 | 89.32875 | 20949 ft | 450 kts | 55° |
| 2026-05-08 02:04 | 23.20405 | 89.35726 | 20950 ft | 450 kts | 55° |
| 2026-05-08 02:04 | 23.22113 | 89.38573 | 20950 ft | 450 kts | 55° |
| 2026-05-08 02:04 | 23.23822 | 89.41426 | 20952 ft | 450 kts | 55° |
| 2026-05-08 02:05 | 23.25531 | 89.44277 | 20957 ft | 450 kts | 55° |
| 2026-05-08 02:05 | 23.27234 | 89.47122 | 20525 ft | 449 kts | 55° |
| 2026-05-08 02:05 | 23.28929 | 89.49957 | 19778 ft | 441 kts | 55° |
| 2026-05-08 02:05 | 23.30567 | 89.52701 | 19296 ft | 424 kts | 55° |
| 2026-05-08 02:06 | 23.32161 | 89.55372 | 18754 ft | 420 kts | 55° |
| 2026-05-08 02:06 | 23.33753 | 89.58037 | 18213 ft | 420 kts | 55° |
| 2026-05-08 02:06 | 23.35347 | 89.60701 | 17626 ft | 420 kts | 55° |
| 2026-05-08 02:06 | 23.36937 | 89.63355 | 17106 ft | 417 kts | 55° |
| 2026-05-08 02:07 | 23.38716 | 89.65816 | 16615 ft | 411 kts | 44° |
| 2026-05-08 02:07 | 23.40696 | 89.68042 | 16123 ft | 408 kts | 44° |
| 2026-05-08 02:07 | 23.42664 | 89.70247 | 15716 ft | 403 kts | 44° |
| 2026-05-08 02:07 | 23.44615 | 89.72433 | 15312 ft | 399 kts | 44° |
| 2026-05-08 02:08 | 23.46536 | 89.74586 | 14891 ft | 395 kts | 44° |
| 2026-05-08 02:08 | 23.48432 | 89.76719 | 14306 ft | 388 kts | 44° |
| 2026-05-08 02:08 | 23.50288 | 89.78811 | 13686 ft | 377 kts | 44° |
| 2026-05-08 02:08 | 23.52071 | 89.80823 | 13221 ft | 364 kts | 44° |
| 2026-05-08 02:09 | 23.53824 | 89.82802 | 12752 ft | 362 kts | 44° |
| 2026-05-08 02:09 | 23.55570 | 89.84772 | 12289 ft | 360 kts | 44° |
| 2026-05-08 02:09 | 23.57304 | 89.86728 | 11813 ft | 358 kts | 44° |
| 2026-05-08 02:09 | 23.59030 | 89.88672 | 11337 ft | 356 kts | 43° |
| 2026-05-08 02:10 | 23.60746 | 89.90605 | 10867 ft | 354 kts | 43° |
| 2026-05-08 02:10 | 23.62454 | 89.92530 | 10394 ft | 352 kts | 43° |
| 2026-05-08 02:10 | 23.64130 | 89.94421 | 10220 ft | 340 kts | 43° |
| 2026-05-08 02:10 | 23.65741 | 89.96242 | 10100 ft | 328 kts | 43° |
| 2026-05-08 02:11 | 23.67294 | 89.97999 | 9987 ft | 316 kts | 42° |
| 2026-05-08 02:11 | 23.68793 | 89.99695 | 9844 ft | 305 kts | 43° |
| 2026-05-08 02:11 | 23.70252 | 90.01344 | 9246 ft | 300 kts | 43° |
| 2026-05-08 02:11 | 23.71698 | 90.02973 | 8587 ft | 298 kts | 43° |
| 2026-05-08 02:12 | 23.73131 | 90.04588 | 8075 ft | 296 kts | 44° |
| 2026-05-08 02:12 | 23.74562 | 90.06204 | 7689 ft | 293 kts | 44° |
| 2026-05-08 02:12 | 23.75974 | 90.07805 | 7144 ft | 291 kts | 45° |
| 2026-05-08 02:12 | 23.77352 | 90.09368 | 6674 ft | 288 kts | 45° |
| 2026-05-08 02:13 | 23.78723 | 90.10919 | 6198 ft | 285 kts | 45° |
| 2026-05-08 02:13 | 23.80091 | 90.12464 | 5741 ft | 283 kts | 46° |
| 2026-05-08 02:13 | 23.81451 | 90.14007 | 5274 ft | 282 kts | 46° |
| 2026-05-08 02:13 | 23.82811 | 90.15554 | 4879 ft | 281 kts | 46° |
| 2026-05-08 02:14 | 23.84160 | 90.17084 | 4412 ft | 277 kts | 46° |
| 2026-05-08 02:14 | 23.85483 | 90.18582 | 3876 ft | 270 kts | 46° |
| 2026-05-08 02:14 | 23.86773 | 90.20044 | 3528 ft | 268 kts | 46° |
| 2026-05-08 02:14 | 23.88065 | 90.21510 | 3153 ft | 265 kts | 47° |
| 2026-05-08 02:15 | 23.89290 | 90.22903 | 3090 ft | 242 kts | 47° |
| 2026-05-08 02:15 | 23.90408 | 90.24174 | 3023 ft | 224 kts | 46° |
| 2026-05-08 02:15 | 23.91448 | 90.25355 | 2919 ft | 209 kts | 47° |
| 2026-05-08 02:15 | 23.92438 | 90.26478 | 2833 ft | 203 kts | 47° |
| 2026-05-08 02:16 | 23.93411 | 90.27585 | 2752 ft | 200 kts | 47° |
| 2026-05-08 02:16 | 23.94292 | 90.28685 | 2663 ft | 186 kts | 59° |
| 2026-05-08 02:16 | 23.94685 | 90.30016 | 2328 ft | 184 kts | 88° |
| 2026-05-08 02:16 | 23.94586 | 90.30908 | 2214 ft | 174 kts | 106° |
| 2026-05-08 02:17 | 23.94017 | 90.32012 | 2028 ft | 164 kts | 132° |
| 2026-05-08 02:17 | 23.92851 | 90.33009 | 1777 ft | 156 kts | 142° |
| 2026-05-08 02:17 | 23.92272 | 90.33469 | 1651 ft | 154 kts | 142° |
| 2026-05-08 02:17 | 23.91406 | 90.34158 | 1447 ft | 154 kts | 142° |
| 2026-05-08 02:18 | 23.90544 | 90.34843 | 1264 ft | 153 kts | 143° |
| 2026-05-08 02:18 | 23.89687 | 90.35524 | 1070 ft | 153 kts | 142° |
| 2026-05-08 02:18 | 23.88825 | 90.36210 | 873 ft | 154 kts | 143° |
| 2026-05-08 02:18 | 23.87961 | 90.36897 | 673 ft | 154 kts | 143° |
| 2026-05-08 02:19 | 23.87102 | 90.37579 | 470 ft | 154 kts | 142° |
| 2026-05-08 02:19 | 23.86237 | 90.38266 | 271 ft | 154 kts | 142° |
| 2026-05-08 02:19 | 23.85373 | 90.38941 | 58 ft | 151 kts | 142° |
| 2026-05-08 02:19 | 23.84601 | 90.39582 | 39 ft | 132 kts | 148° |
| 2026-05-08 02:20 | 23.83934 | 90.40098 | 38 ft | 96 kts | 145° |
| 2026-05-08 02:20 | 23.83534 | 90.40417 | 38 ft | 47 kts | 144° |
| 2026-05-08 02:20 | 23.83348 | 90.40565 | 36 ft | 24 kts | 144° |
| 2026-05-08 02:20 | 23.83276 | 90.40688 | 37 ft | 14 kts | 152° |
| 2026-05-08 02:21 | 23.83259 | 90.40637 | 35 ft | 10 kts | 317° |
| 2026-05-08 02:21 | 23.83353 | 90.40558 | 36 ft | 24 kts | 324° |
| 2026-05-08 02:21 | 23.83505 | 90.40439 | 38 ft | 28 kts | 324° |
| 2026-05-08 02:21 | 23.83666 | 90.40313 | 38 ft | 29 kts | 321° |
| 2026-05-08 02:22 | 23.83829 | 90.40181 | 39 ft | 30 kts | 324° |
| 2026-05-08 02:22 | 23.83997 | 90.40049 | 38 ft | 29 kts | 324° |
| 2026-05-08 02:22 | 23.84167 | 90.39924 | 35 ft | 31 kts | 334° |
| 2026-05-08 02:22 | 23.84349 | 90.39877 | 35 ft | 22 kts | 5° |
| 2026-05-08 02:23 | 23.84459 | 90.39968 | 36 ft | 10 kts | 54° |
| 2026-05-08 02:23 | 23.84502 | 90.40032 | 36 ft | 11 kts | 54° |
| 2026-05-08 02:23 | 23.84551 | 90.40106 | 35 ft | 13 kts | 53° |
| 2026-05-08 02:23 | 23.84609 | 90.40191 | 36 ft | 15 kts | 53° |
| 2026-05-08 02:24 | 23.84664 | 90.40271 | 36 ft | 12 kts | 53° |
| 2026-05-08 02:24 | 23.84688 | 90.40308 | 36 ft | 5 kts | 58° |
| 2026-05-08 02:24 | 23.84677 | 90.40362 | 36 ft | 9 kts | 136° |
| 2026-05-08 02:24 | 23.84632 | 90.40398 | 36 ft | 7 kts | 144° |
| 2026-05-08 02:25 | 23.84598 | 90.40431 | 36 ft | 6 kts | 127° |
| 2026-05-08 02:25 | 23.84599 | 90.40467 | 36 ft | 4 kts | 65° |
| 2026-05-08 02:25 | 23.84613 | 90.40490 | 35 ft | 3 kts | 55° |
| 2026-05-08 02:25 | 23.84622 | 90.40505 | 36 ft | 2 kts | 54° |
| 2026-05-08 02:26 | 23.84628 | 90.40513 | 36 ft | 1 kts | 54° |
| 2026-05-08 02:26 | 23.84628 | 90.40514 | 36 ft | 0 kts | 54° |